sensor_id;sensor_type;location;lat;lon;timestamp;P1;durP1;ratioP1;P2;durP2;ratioP2
43552;SDS011;29153;42.696;23.218;2023-07-29T00:00:13;3.87;;;2.20;;
43552;SDS011;29153;42.696;23.218;2023-07-29T00:02:40;4.37;;;2.33;;
43552;SDS011;29153;42.696;23.218;2023-07-29T00:05:08;2.98;;;1.95;;
43552;SDS011;29153;42.696;23.218;2023-07-29T00:07:36;3.65;;;2.22;;
43552;SDS011;29153;42.696;23.218;2023-07-29T00:10:04;3.70;;;1.95;;
43552;SDS011;29153;42.696;23.218;2023-07-29T00:12:32;3.30;;;2.08;;
43552;SDS011;29153;42.696;23.218;2023-07-29T00:15:00;5.20;;;2.67;;
43552;SDS011;29153;42.696;23.218;2023-07-29T00:17:27;4.28;;;2.27;;
43552;SDS011;29153;42.696;23.218;2023-07-29T00:19:55;6.58;;;2.27;;
43552;SDS011;29153;42.696;23.218;2023-07-29T00:22:23;5.05;;;2.27;;
43552;SDS011;29153;42.696;23.218;2023-07-29T00:24:54;4.50;;;2.27;;
43552;SDS011;29153;42.696;23.218;2023-07-29T00:27:23;4.90;;;2.47;;
43552;SDS011;29153;42.696;23.218;2023-07-29T00:29:51;4.17;;;2.22;;
43552;SDS011;29153;42.696;23.218;2023-07-29T00:32:18;5.15;;;2.22;;
43552;SDS011;29153;42.696;23.218;2023-07-29T00:34:46;9.05;;;2.75;;
43552;SDS011;29153;42.696;23.218;2023-07-29T00:37:14;4.08;;;2.35;;
43552;SDS011;29153;42.696;23.218;2023-07-29T00:39:41;3.77;;;2.20;;
43552;SDS011;29153;42.696;23.218;2023-07-29T00:42:09;4.67;;;2.45;;
43552;SDS011;29153;42.696;23.218;2023-07-29T00:44:37;3.60;;;2.22;;
43552;SDS011;29153;42.696;23.218;2023-07-29T00:47:04;4.17;;;2.30;;
43552;SDS011;29153;42.696;23.218;2023-07-29T00:49:33;4.25;;;2.50;;
43552;SDS011;29153;42.696;23.218;2023-07-29T00:52:01;5.58;;;2.37;;
43552;SDS011;29153;42.696;23.218;2023-07-29T00:54:29;3.50;;;2.17;;
43552;SDS011;29153;42.696;23.218;2023-07-29T00:56:56;4.60;;;2.83;;
43552;SDS011;29153;42.696;23.218;2023-07-29T00:59:24;5.87;;;2.62;;
43552;SDS011;29153;42.696;23.218;2023-07-29T01:01:53;3.83;;;2.17;;
43552;SDS011;29153;42.696;23.218;2023-07-29T01:04:22;4.67;;;2.60;;
43552;SDS011;29153;42.696;23.218;2023-07-29T01:09:52;6.17;;;2.70;;
43552;SDS011;29153;42.696;23.218;2023-07-29T01:12:47;4.67;;;2.85;;
43552;SDS011;29153;42.696;23.218;2023-07-29T01:15:33;4.22;;;2.42;;
43552;SDS011;29153;42.696;23.218;2023-07-29T01:18:10;5.08;;;2.52;;
43552;SDS011;29153;42.696;23.218;2023-07-29T01:20:37;4.30;;;2.42;;
43552;SDS011;29153;42.696;23.218;2023-07-29T01:23:05;4.83;;;3.00;;
43552;SDS011;29153;42.696;23.218;2023-07-29T01:25:33;5.15;;;3.05;;
43552;SDS011;29153;42.696;23.218;2023-07-29T01:28:00;5.37;;;3.08;;
43552;SDS011;29153;42.696;23.218;2023-07-29T01:30:33;6.37;;;3.87;;
43552;SDS011;29153;42.696;23.218;2023-07-29T01:33:09;5.92;;;2.98;;
43552;SDS011;29153;42.696;23.218;2023-07-29T01:35:42;4.92;;;2.85;;
43552;SDS011;29153;42.696;23.218;2023-07-29T01:38:20;6.17;;;2.87;;
43552;SDS011;29153;42.696;23.218;2023-07-29T01:40:45;5.40;;;2.70;;
43552;SDS011;29153;42.696;23.218;2023-07-29T01:43:15;4.03;;;2.58;;
43552;SDS011;29153;42.696;23.218;2023-07-29T01:45:44;4.40;;;2.70;;
43552;SDS011;29153;42.696;23.218;2023-07-29T01:48:12;5.62;;;3.35;;
43552;SDS011;29153;42.696;23.218;2023-07-29T01:50:39;5.45;;;3.37;;
43552;SDS011;29153;42.696;23.218;2023-07-29T01:53:07;4.92;;;2.80;;
43552;SDS011;29153;42.696;23.218;2023-07-29T01:55:35;8.85;;;3.35;;
43552;SDS011;29153;42.696;23.218;2023-07-29T01:58:02;6.33;;;4.00;;
43552;SDS011;29153;42.696;23.218;2023-07-29T02:00:30;5.87;;;3.40;;
43552;SDS011;29153;42.696;23.218;2023-07-29T02:02:57;7.05;;;3.67;;
43552;SDS011;29153;42.696;23.218;2023-07-29T02:05:25;6.35;;;2.77;;
43552;SDS011;29153;42.696;23.218;2023-07-29T02:07:53;5.22;;;3.45;;
43552;SDS011;29153;42.696;23.218;2023-07-29T02:10:20;7.85;;;3.70;;
43552;SDS011;29153;42.696;23.218;2023-07-29T02:12:48;6.90;;;4.12;;
43552;SDS011;29153;42.696;23.218;2023-07-29T02:15:15;5.10;;;3.25;;
43552;SDS011;29153;42.696;23.218;2023-07-29T02:17:44;6.17;;;3.10;;
43552;SDS011;29153;42.696;23.218;2023-07-29T02:20:11;6.28;;;3.42;;
43552;SDS011;29153;42.696;23.218;2023-07-29T02:22:39;4.47;;;2.87;;
43552;SDS011;29153;42.696;23.218;2023-07-29T02:25:07;5.22;;;2.77;;
43552;SDS011;29153;42.696;23.218;2023-07-29T02:27:35;6.20;;;3.17;;
43552;SDS011;29153;42.696;23.218;2023-07-29T02:30:03;5.97;;;3.20;;
43552;SDS011;29153;42.696;23.218;2023-07-29T02:32:31;5.83;;;3.37;;
43552;SDS011;29153;42.696;23.218;2023-07-29T02:34:59;5.03;;;2.98;;
43552;SDS011;29153;42.696;23.218;2023-07-29T02:37:27;6.17;;;2.92;;
43552;SDS011;29153;42.696;23.218;2023-07-29T02:39:54;6.58;;;2.83;;
43552;SDS011;29153;42.696;23.218;2023-07-29T02:42:22;5.05;;;2.80;;
43552;SDS011;29153;42.696;23.218;2023-07-29T02:44:49;5.97;;;2.90;;
43552;SDS011;29153;42.696;23.218;2023-07-29T02:47:17;4.53;;;3.00;;
43552;SDS011;29153;42.696;23.218;2023-07-29T02:49:45;3.90;;;2.22;;
43552;SDS011;29153;42.696;23.218;2023-07-29T02:52:12;4.30;;;2.47;;
43552;SDS011;29153;42.696;23.218;2023-07-29T02:54:40;5.33;;;3.15;;
43552;SDS011;29153;42.696;23.218;2023-07-29T02:57:07;5.05;;;2.90;;
43552;SDS011;29153;42.696;23.218;2023-07-29T02:59:35;5.78;;;3.00;;
43552;SDS011;29153;42.696;23.218;2023-07-29T03:02:03;7.03;;;3.22;;
43552;SDS011;29153;42.696;23.218;2023-07-29T03:04:30;6.85;;;3.12;;
43552;SDS011;29153;42.696;23.218;2023-07-29T03:06:58;4.58;;;3.05;;
43552;SDS011;29153;42.696;23.218;2023-07-29T03:11:54;5.55;;;3.02;;
43552;SDS011;29153;42.696;23.218;2023-07-29T03:14:22;5.67;;;3.77;;
43552;SDS011;29153;42.696;23.218;2023-07-29T03:16:50;6.40;;;3.33;;
43552;SDS011;29153;42.696;23.218;2023-07-29T03:19:17;4.92;;;3.02;;
43552;SDS011;29153;42.696;23.218;2023-07-29T03:21:45;6.08;;;3.00;;
43552;SDS011;29153;42.696;23.218;2023-07-29T03:24:13;5.15;;;3.00;;
43552;SDS011;29153;42.696;23.218;2023-07-29T03:26:40;8.63;;;3.05;;
43552;SDS011;29153;42.696;23.218;2023-07-29T03:29:08;4.08;;;2.67;;
43552;SDS011;29153;42.696;23.218;2023-07-29T03:31:35;7.37;;;2.98;;
43552;SDS011;29153;42.696;23.218;2023-07-29T03:34:04;5.92;;;2.87;;
43552;SDS011;29153;42.696;23.218;2023-07-29T03:36:37;5.25;;;3.10;;
43552;SDS011;29153;42.696;23.218;2023-07-29T03:39:03;5.58;;;2.85;;
43552;SDS011;29153;42.696;23.218;2023-07-29T03:41:31;4.10;;;2.70;;
43552;SDS011;29153;42.696;23.218;2023-07-29T03:44:01;5.10;;;3.10;;
43552;SDS011;29153;42.696;23.218;2023-07-29T03:46:29;4.60;;;2.67;;
43552;SDS011;29153;42.696;23.218;2023-07-29T03:48:59;5.28;;;2.80;;
43552;SDS011;29153;42.696;23.218;2023-07-29T03:51:26;5.12;;;2.65;;
43552;SDS011;29153;42.696;23.218;2023-07-29T03:53:54;4.97;;;2.90;;
43552;SDS011;29153;42.696;23.218;2023-07-29T03:56:22;5.97;;;2.85;;
43552;SDS011;29153;42.696;23.218;2023-07-29T03:58:52;4.75;;;3.05;;
43552;SDS011;29153;42.696;23.218;2023-07-29T04:01:22;7.00;;;2.67;;
43552;SDS011;29153;42.696;23.218;2023-07-29T04:03:50;5.60;;;2.85;;
43552;SDS011;29153;42.696;23.218;2023-07-29T04:06:17;5.83;;;3.12;;
43552;SDS011;29153;42.696;23.218;2023-07-29T04:08:45;5.42;;;3.08;;
43552;SDS011;29153;42.696;23.218;2023-07-29T04:11:19;4.83;;;2.75;;
43552;SDS011;29153;42.696;23.218;2023-07-29T04:13:51;4.55;;;2.67;;
43552;SDS011;29153;42.696;23.218;2023-07-29T04:16:19;5.03;;;2.90;;
43552;SDS011;29153;42.696;23.218;2023-07-29T04:18:50;5.17;;;3.17;;
43552;SDS011;29153;42.696;23.218;2023-07-29T04:21:17;5.62;;;3.17;;
43552;SDS011;29153;42.696;23.218;2023-07-29T04:23:48;6.28;;;3.62;;
43552;SDS011;29153;42.696;23.218;2023-07-29T04:26:16;5.00;;;3.12;;
43552;SDS011;29153;42.696;23.218;2023-07-29T04:28:43;5.60;;;3.05;;
43552;SDS011;29153;42.696;23.218;2023-07-29T04:31:11;7.83;;;3.52;;
43552;SDS011;29153;42.696;23.218;2023-07-29T04:33:39;6.05;;;3.83;;
43552;SDS011;29153;42.696;23.218;2023-07-29T04:36:08;8.05;;;3.25;;
43552;SDS011;29153;42.696;23.218;2023-07-29T04:38:36;7.85;;;3.12;;
43552;SDS011;29153;42.696;23.218;2023-07-29T04:41:10;8.23;;;3.08;;
43552;SDS011;29153;42.696;23.218;2023-07-29T04:43:40;5.95;;;3.60;;
43552;SDS011;29153;42.696;23.218;2023-07-29T04:46:13;8.60;;;3.98;;
43552;SDS011;29153;42.696;23.218;2023-07-29T04:48:44;7.37;;;3.47;;
43552;SDS011;29153;42.696;23.218;2023-07-29T04:51:15;10.05;;;4.10;;
43552;SDS011;29153;42.696;23.218;2023-07-29T04:53:47;10.63;;;3.83;;
43552;SDS011;29153;42.696;23.218;2023-07-29T04:56:15;7.33;;;3.58;;
43552;SDS011;29153;42.696;23.218;2023-07-29T04:58:52;6.45;;;4.15;;
43552;SDS011;29153;42.696;23.218;2023-07-29T05:01:20;7.28;;;4.33;;
43552;SDS011;29153;42.696;23.218;2023-07-29T05:03:47;7.42;;;4.10;;
43552;SDS011;29153;42.696;23.218;2023-07-29T05:06:15;7.72;;;4.35;;
43552;SDS011;29153;42.696;23.218;2023-07-29T05:08:44;9.55;;;4.72;;
43552;SDS011;29153;42.696;23.218;2023-07-29T05:11:15;7.55;;;4.83;;
43552;SDS011;29153;42.696;23.218;2023-07-29T05:13:47;6.72;;;4.62;;
43552;SDS011;29153;42.696;23.218;2023-07-29T05:16:17;8.58;;;4.55;;
43552;SDS011;29153;42.696;23.218;2023-07-29T05:18:48;7.47;;;4.92;;
43552;SDS011;29153;42.696;23.218;2023-07-29T05:34:30;6.72;;;3.70;;
43552;SDS011;29153;42.696;23.218;2023-07-29T05:37:21;7.80;;;4.78;;
43552;SDS011;29153;42.696;23.218;2023-07-29T05:39:34;8.38;;;3.52;;
43552;SDS011;29153;42.696;23.218;2023-07-29T05:42:02;7.90;;;4.30;;
43552;SDS011;29153;42.696;23.218;2023-07-29T05:44:30;8.65;;;4.37;;
43552;SDS011;29153;42.696;23.218;2023-07-29T05:46:58;8.43;;;4.17;;
43552;SDS011;29153;42.696;23.218;2023-07-29T05:49:25;9.35;;;4.28;;
43552;SDS011;29153;42.696;23.218;2023-07-29T05:51:53;5.47;;;3.45;;
43552;SDS011;29153;42.696;23.218;2023-07-29T05:54:21;8.28;;;3.30;;
43552;SDS011;29153;42.696;23.218;2023-07-29T05:56:50;5.67;;;3.62;;
43552;SDS011;29153;42.696;23.218;2023-07-29T05:59:32;5.97;;;3.47;;
43552;SDS011;29153;42.696;23.218;2023-07-29T06:01:57;5.87;;;3.30;;
43552;SDS011;29153;42.696;23.218;2023-07-29T06:04:26;5.33;;;3.50;;
43552;SDS011;29153;42.696;23.218;2023-07-29T06:06:59;7.47;;;3.58;;
43552;SDS011;29153;42.696;23.218;2023-07-29T06:12:51;6.72;;;3.35;;
43552;SDS011;29153;42.696;23.218;2023-07-29T06:15:19;7.17;;;3.80;;
43552;SDS011;29153;42.696;23.218;2023-07-29T06:17:48;7.47;;;3.75;;
43552;SDS011;29153;42.696;23.218;2023-07-29T06:20:16;7.95;;;3.33;;
43552;SDS011;29153;42.696;23.218;2023-07-29T06:22:45;7.17;;;3.70;;
43552;SDS011;29153;42.696;23.218;2023-07-29T06:25:13;6.67;;;3.52;;
43552;SDS011;29153;42.696;23.218;2023-07-29T06:27:46;6.20;;;3.20;;
43552;SDS011;29153;42.696;23.218;2023-07-29T06:30:17;5.75;;;3.35;;
43552;SDS011;29153;42.696;23.218;2023-07-29T06:32:41;7.62;;;3.70;;
43552;SDS011;29153;42.696;23.218;2023-07-29T06:35:14;5.33;;;3.12;;
43552;SDS011;29153;42.696;23.218;2023-07-29T06:37:41;4.95;;;3.40;;
43552;SDS011;29153;42.696;23.218;2023-07-29T06:40:09;4.95;;;3.02;;
43552;SDS011;29153;42.696;23.218;2023-07-29T06:42:37;8.48;;;3.72;;
43552;SDS011;29153;42.696;23.218;2023-07-29T06:45:06;11.25;;;3.55;;
43552;SDS011;29153;42.696;23.218;2023-07-29T06:47:37;6.05;;;3.12;;
43552;SDS011;29153;42.696;23.218;2023-07-29T06:50:05;6.58;;;3.47;;
43552;SDS011;29153;42.696;23.218;2023-07-29T06:54:59;12.55;;;3.33;;
43552;SDS011;29153;42.696;23.218;2023-07-29T06:57:33;10.72;;;3.25;;
43552;SDS011;29153;42.696;23.218;2023-07-29T07:00:01;9.78;;;3.27;;
43552;SDS011;29153;42.696;23.218;2023-07-29T07:02:29;8.38;;;3.40;;
43552;SDS011;29153;42.696;23.218;2023-07-29T07:04:57;8.88;;;3.33;;
43552;SDS011;29153;42.696;23.218;2023-07-29T07:07:24;9.23;;;3.37;;
43552;SDS011;29153;42.696;23.218;2023-07-29T07:09:53;6.67;;;3.00;;
43552;SDS011;29153;42.696;23.218;2023-07-29T07:12:24;5.75;;;3.22;;
43552;SDS011;29153;42.696;23.218;2023-07-29T07:15:01;6.40;;;3.15;;
43552;SDS011;29153;42.696;23.218;2023-07-29T07:17:30;7.70;;;3.33;;
43552;SDS011;29153;42.696;23.218;2023-07-29T07:19:57;6.30;;;3.05;;
43552;SDS011;29153;42.696;23.218;2023-07-29T07:22:24;5.50;;;2.95;;
43552;SDS011;29153;42.696;23.218;2023-07-29T07:24:52;6.12;;;3.15;;
43552;SDS011;29153;42.696;23.218;2023-07-29T07:27:20;5.90;;;2.83;;
43552;SDS011;29153;42.696;23.218;2023-07-29T07:29:47;5.05;;;2.90;;
43552;SDS011;29153;42.696;23.218;2023-07-29T07:32:18;5.95;;;2.52;;
43552;SDS011;29153;42.696;23.218;2023-07-29T07:34:46;7.33;;;2.92;;
43552;SDS011;29153;42.696;23.218;2023-07-29T07:39:56;7.62;;;2.83;;
43552;SDS011;29153;42.696;23.218;2023-07-29T07:42:39;4.78;;;2.77;;
43552;SDS011;29153;42.696;23.218;2023-07-29T07:45:06;11.55;;;2.92;;
43552;SDS011;29153;42.696;23.218;2023-07-29T07:47:36;8.53;;;2.62;;
43552;SDS011;29153;42.696;23.218;2023-07-29T07:56:58;8.60;;;3.10;;
43552;SDS011;29153;42.696;23.218;2023-07-29T07:59:36;11.65;;;3.87;;
43552;SDS011;29153;42.696;23.218;2023-07-29T08:02:12;7.67;;;3.22;;
43552;SDS011;29153;42.696;23.218;2023-07-29T08:04:42;11.85;;;3.45;;
43552;SDS011;29153;42.696;23.218;2023-07-29T08:09:38;7.20;;;2.87;;
43552;SDS011;29153;42.696;23.218;2023-07-29T08:12:09;7.47;;;2.72;;
43552;SDS011;29153;42.696;23.218;2023-07-29T08:14:36;6.42;;;2.92;;
43552;SDS011;29153;42.696;23.218;2023-07-29T08:19:34;4.87;;;2.62;;
43552;SDS011;29153;42.696;23.218;2023-07-29T08:22:02;6.62;;;2.60;;
43552;SDS011;29153;42.696;23.218;2023-07-29T08:24:30;4.17;;;2.47;;
43552;SDS011;29153;42.696;23.218;2023-07-29T08:27:03;15.50;;;2.62;;
43552;SDS011;29153;42.696;23.218;2023-07-29T08:29:35;5.42;;;2.42;;
43552;SDS011;29153;42.696;23.218;2023-07-29T08:34:34;3.42;;;1.87;;
43552;SDS011;29153;42.696;23.218;2023-07-29T08:39:41;5.72;;;1.55;;
43552;SDS011;29153;42.696;23.218;2023-07-29T08:42:20;4.62;;;2.20;;
43552;SDS011;29153;42.696;23.218;2023-07-29T08:44:56;6.35;;;1.90;;
43552;SDS011;29153;42.696;23.218;2023-07-29T08:50:03;5.12;;;2.10;;
43552;SDS011;29153;42.696;23.218;2023-07-29T08:52:31;7.15;;;1.90;;
43552;SDS011;29153;42.696;23.218;2023-07-29T08:55:14;5.05;;;2.12;;
43552;SDS011;29153;42.696;23.218;2023-07-29T09:00:10;3.75;;;1.62;;
43552;SDS011;29153;42.696;23.218;2023-07-29T09:02:45;4.45;;;1.47;;
43552;SDS011;29153;42.696;23.218;2023-07-29T09:05:10;2.95;;;1.35;;
43552;SDS011;29153;42.696;23.218;2023-07-29T09:07:37;2.98;;;1.47;;
43552;SDS011;29153;42.696;23.218;2023-07-29T09:13:03;3.90;;;1.17;;
43552;SDS011;29153;42.696;23.218;2023-07-29T09:15:26;4.20;;;1.17;;
43552;SDS011;29153;42.696;23.218;2023-07-29T09:20:35;3.98;;;1.40;;
43552;SDS011;29153;42.696;23.218;2023-07-29T09:23:10;4.87;;;1.65;;
43552;SDS011;29153;42.696;23.218;2023-07-29T09:25:41;3.37;;;1.37;;
43552;SDS011;29153;42.696;23.218;2023-07-29T09:39:17;5.03;;;1.62;;
43552;SDS011;29153;42.696;23.218;2023-07-29T09:41:48;39.70;;;2.77;;
43552;SDS011;29153;42.696;23.218;2023-07-29T09:44:18;2.40;;;1.37;;
43552;SDS011;29153;42.696;23.218;2023-07-29T09:46:50;7.15;;;1.50;;
43552;SDS011;29153;42.696;23.218;2023-07-29T09:52:25;1.85;;;0.93;;
43552;SDS011;29153;42.696;23.218;2023-07-29T09:54:51;3.35;;;0.80;;
43552;SDS011;29153;42.696;23.218;2023-07-29T09:57:19;2.25;;;1.15;;
43552;SDS011;29153;42.696;23.218;2023-07-29T09:59:56;2.87;;;1.20;;
43552;SDS011;29153;42.696;23.218;2023-07-29T10:02:24;2.33;;;0.70;;
43552;SDS011;29153;42.696;23.218;2023-07-29T10:05:03;2.45;;;0.90;;
43552;SDS011;29153;42.696;23.218;2023-07-29T10:07:26;2.60;;;0.82;;
43552;SDS011;29153;42.696;23.218;2023-07-29T10:09:54;14.23;;;1.50;;
43552;SDS011;29153;42.696;23.218;2023-07-29T10:12:24;5.62;;;1.17;;
43552;SDS011;29153;42.696;23.218;2023-07-29T10:14:53;5.55;;;1.07;;
43552;SDS011;29153;42.696;23.218;2023-07-29T10:17:23;2.58;;;1.00;;
43552;SDS011;29153;42.696;23.218;2023-07-29T10:19:53;60.05;;;3.87;;
43552;SDS011;29153;42.696;23.218;2023-07-29T10:22:29;3.00;;;1.00;;
43552;SDS011;29153;42.696;23.218;2023-07-29T10:25:03;4.53;;;1.02;;
43552;SDS011;29153;42.696;23.218;2023-07-29T10:27:27;4.00;;;0.98;;
43552;SDS011;29153;42.696;23.218;2023-07-29T10:30:01;4.22;;;0.82;;
43552;SDS011;29153;42.696;23.218;2023-07-29T10:32:32;12.88;;;1.37;;
43552;SDS011;29153;42.696;23.218;2023-07-29T10:35:01;2.05;;;0.88;;
43552;SDS011;29153;42.696;23.218;2023-07-29T10:37:28;2.60;;;0.78;;
43552;SDS011;29153;42.696;23.218;2023-07-29T10:39:56;3.22;;;0.78;;
43552;SDS011;29153;42.696;23.218;2023-07-29T10:42:24;2.10;;;0.70;;
43552;SDS011;29153;42.696;23.218;2023-07-29T10:44:52;3.50;;;1.00;;
43552;SDS011;29153;42.696;23.218;2023-07-29T10:47:24;4.12;;;1.10;;
43552;SDS011;29153;42.696;23.218;2023-07-29T10:49:58;3.00;;;1.02;;
43552;SDS011;29153;42.696;23.218;2023-07-29T10:55:03;4.80;;;0.93;;
43552;SDS011;29153;42.696;23.218;2023-07-29T10:57:39;3.55;;;0.72;;
43552;SDS011;29153;42.696;23.218;2023-07-29T11:00:07;1.82;;;0.60;;
43552;SDS011;29153;42.696;23.218;2023-07-29T11:02:35;2.87;;;0.50;;
43552;SDS011;29153;42.696;23.218;2023-07-29T11:05:07;1.80;;;0.40;;
43552;SDS011;29153;42.696;23.218;2023-07-29T11:07:45;2.22;;;0.60;;
43552;SDS011;29153;42.696;23.218;2023-07-29T11:10:18;2.80;;;0.50;;
43552;SDS011;29153;42.696;23.218;2023-07-29T11:15:23;3.20;;;0.60;;
43552;SDS011;29153;42.696;23.218;2023-07-29T11:17:52;1.20;;;0.40;;
43552;SDS011;29153;42.696;23.218;2023-07-29T11:20:33;4.58;;;0.65;;
43552;SDS011;29153;42.696;23.218;2023-07-29T11:22:59;2.52;;;0.45;;
43552;SDS011;29153;42.696;23.218;2023-07-29T11:25:29;2.65;;;0.78;;
43552;SDS011;29153;42.696;23.218;2023-07-29T11:28:01;1.72;;;0.47;;
43552;SDS011;29153;42.696;23.218;2023-07-29T11:30:30;2.47;;;0.80;;
43552;SDS011;29153;42.696;23.218;2023-07-29T11:32:59;1.90;;;0.72;;
43552;SDS011;29153;42.696;23.218;2023-07-29T11:35:28;1.67;;;0.50;;
43552;SDS011;29153;42.696;23.218;2023-07-29T11:37:56;3.10;;;0.50;;
43552;SDS011;29153;42.696;23.218;2023-07-29T11:40:24;2.67;;;0.62;;
43552;SDS011;29153;42.696;23.218;2023-07-29T11:42:54;2.00;;;0.60;;
43552;SDS011;29153;42.696;23.218;2023-07-29T11:45:27;1.70;;;0.50;;
43552;SDS011;29153;42.696;23.218;2023-07-29T11:47:55;1.50;;;0.60;;
43552;SDS011;29153;42.696;23.218;2023-07-29T11:50:24;1.87;;;0.80;;
43552;SDS011;29153;42.696;23.218;2023-07-29T11:52:53;1.50;;;0.50;;
43552;SDS011;29153;42.696;23.218;2023-07-29T11:55:38;1.65;;;0.60;;
43552;SDS011;29153;42.696;23.218;2023-07-29T11:58:06;1.72;;;0.70;;
43552;SDS011;29153;42.696;23.218;2023-07-29T12:00:34;2.75;;;0.40;;
43552;SDS011;29153;42.696;23.218;2023-07-29T12:03:02;3.65;;;0.80;;
43552;SDS011;29153;42.696;23.218;2023-07-29T12:05:35;1.98;;;0.60;;
43552;SDS011;29153;42.696;23.218;2023-07-29T12:07:59;3.17;;;0.50;;
43552;SDS011;29153;42.696;23.218;2023-07-29T12:10:32;1.92;;;0.57;;
43552;SDS011;29153;42.696;23.218;2023-07-29T12:12:56;3.98;;;0.90;;
43552;SDS011;29153;42.696;23.218;2023-07-29T12:15:27;2.70;;;0.57;;
43552;SDS011;29153;42.696;23.218;2023-07-29T12:17:59;3.00;;;0.62;;
43552;SDS011;29153;42.696;23.218;2023-07-29T12:20:30;1.98;;;0.72;;
43552;SDS011;29153;42.696;23.218;2023-07-29T12:22:59;1.77;;;0.60;;
43552;SDS011;29153;42.696;23.218;2023-07-29T12:25:28;2.47;;;0.50;;
43552;SDS011;29153;42.696;23.218;2023-07-29T12:27:56;2.62;;;0.65;;
43552;SDS011;29153;42.696;23.218;2023-07-29T12:30:25;1.72;;;0.35;;
43552;SDS011;29153;42.696;23.218;2023-07-29T12:32:58;3.20;;;0.60;;
43552;SDS011;29153;42.696;23.218;2023-07-29T12:35:33;1.55;;;0.55;;
43552;SDS011;29153;42.696;23.218;2023-07-29T12:37:59;1.45;;;0.40;;
43552;SDS011;29153;42.696;23.218;2023-07-29T12:40:27;2.67;;;0.60;;
43552;SDS011;29153;42.696;23.218;2023-07-29T12:42:59;1.15;;;0.35;;
43552;SDS011;29153;42.696;23.218;2023-07-29T12:45:25;2.70;;;0.53;;
43552;SDS011;29153;42.696;23.218;2023-07-29T12:47:54;4.53;;;0.95;;
43552;SDS011;29153;42.696;23.218;2023-07-29T12:50:22;1.80;;;0.50;;
43552;SDS011;29153;42.696;23.218;2023-07-29T12:52:50;1.72;;;0.50;;
43552;SDS011;29153;42.696;23.218;2023-07-29T12:55:31;2.12;;;0.50;;
43552;SDS011;29153;42.696;23.218;2023-07-29T12:57:50;3.33;;;0.53;;
43552;SDS011;29153;42.696;23.218;2023-07-29T13:00:20;2.10;;;0.65;;
43552;SDS011;29153;42.696;23.218;2023-07-29T13:02:50;2.22;;;0.72;;
43552;SDS011;29153;42.696;23.218;2023-07-29T13:05:17;3.55;;;0.57;;
43552;SDS011;29153;42.696;23.218;2023-07-29T13:07:45;3.00;;;0.50;;
43552;SDS011;29153;42.696;23.218;2023-07-29T13:10:13;1.95;;;0.70;;
43552;SDS011;29153;42.696;23.218;2023-07-29T13:12:43;3.55;;;0.53;;
43552;SDS011;29153;42.696;23.218;2023-07-29T13:15:14;1.57;;;0.50;;
43552;SDS011;29153;42.696;23.218;2023-07-29T13:17:46;2.95;;;0.50;;
43552;SDS011;29153;42.696;23.218;2023-07-29T13:20:14;28.15;;;2.10;;
43552;SDS011;29153;42.696;23.218;2023-07-29T13:22:42;2.60;;;0.70;;
43552;SDS011;29153;42.696;23.218;2023-07-29T13:25:11;3.40;;;0.93;;
43552;SDS011;29153;42.696;23.218;2023-07-29T13:34:10;3.12;;;1.25;;
43552;SDS011;29153;42.696;23.218;2023-07-29T13:36:42;2.37;;;1.05;;
43552;SDS011;29153;42.696;23.218;2023-07-29T13:39:13;4.00;;;1.20;;
43552;SDS011;29153;42.696;23.218;2023-07-29T13:41:41;15.53;;;1.60;;
43552;SDS011;29153;42.696;23.218;2023-07-29T13:44:14;4.22;;;1.60;;
43552;SDS011;29153;42.696;23.218;2023-07-29T13:46:38;3.15;;;1.77;;
43552;SDS011;29153;42.696;23.218;2023-07-29T13:52:27;3.50;;;1.70;;
43552;SDS011;29153;42.696;23.218;2023-07-29T13:54:55;4.62;;;1.70;;
43552;SDS011;29153;42.696;23.218;2023-07-29T13:57:23;4.10;;;1.60;;
43552;SDS011;29153;42.696;23.218;2023-07-29T13:59:50;3.90;;;1.70;;
43552;SDS011;29153;42.696;23.218;2023-07-29T14:02:18;5.55;;;1.62;;
43552;SDS011;29153;42.696;23.218;2023-07-29T14:04:48;5.65;;;1.00;;
43552;SDS011;29153;42.696;23.218;2023-07-29T14:07:15;9.38;;;1.52;;
43552;SDS011;29153;42.696;23.218;2023-07-29T14:09:45;3.40;;;1.55;;
43552;SDS011;29153;42.696;23.218;2023-07-29T14:12:15;4.45;;;1.25;;
43552;SDS011;29153;42.696;23.218;2023-07-29T14:14:43;5.15;;;1.40;;
43552;SDS011;29153;42.696;23.218;2023-07-29T14:17:12;7.80;;;1.67;;
43552;SDS011;29153;42.696;23.218;2023-07-29T14:19:40;4.45;;;1.20;;
43552;SDS011;29153;42.696;23.218;2023-07-29T14:22:07;5.28;;;1.98;;
43552;SDS011;29153;42.696;23.218;2023-07-29T14:24:35;2.52;;;1.15;;
43552;SDS011;29153;42.696;23.218;2023-07-29T14:27:03;4.62;;;1.00;;
43552;SDS011;29153;42.696;23.218;2023-07-29T14:29:31;4.87;;;1.10;;
43552;SDS011;29153;42.696;23.218;2023-07-29T14:31:58;4.92;;;0.95;;
43552;SDS011;29153;42.696;23.218;2023-07-29T14:34:26;2.52;;;1.02;;
43552;SDS011;29153;42.696;23.218;2023-07-29T14:36:54;2.35;;;1.17;;
43552;SDS011;29153;42.696;23.218;2023-07-29T14:39:22;4.72;;;1.10;;
43552;SDS011;29153;42.696;23.218;2023-07-29T14:41:50;3.55;;;1.10;;
43552;SDS011;29153;42.696;23.218;2023-07-29T14:44:17;2.67;;;1.15;;
43552;SDS011;29153;42.696;23.218;2023-07-29T14:46:46;2.65;;;1.00;;
43552;SDS011;29153;42.696;23.218;2023-07-29T14:49:15;3.62;;;1.22;;
43552;SDS011;29153;42.696;23.218;2023-07-29T14:51:43;4.25;;;1.27;;
43552;SDS011;29153;42.696;23.218;2023-07-29T14:54:11;2.17;;;0.90;;
43552;SDS011;29153;42.696;23.218;2023-07-29T14:56:38;3.12;;;1.22;;
43552;SDS011;29153;42.696;23.218;2023-07-29T14:59:08;2.55;;;1.25;;
43552;SDS011;29153;42.696;23.218;2023-07-29T15:01:37;2.35;;;1.07;;
43552;SDS011;29153;42.696;23.218;2023-07-29T15:04:20;3.05;;;1.22;;
43552;SDS011;29153;42.696;23.218;2023-07-29T15:06:47;3.90;;;1.35;;
43552;SDS011;29153;42.696;23.218;2023-07-29T15:09:16;3.17;;;1.40;;
43552;SDS011;29153;42.696;23.218;2023-07-29T15:11:49;3.87;;;1.12;;
43552;SDS011;29153;42.696;23.218;2023-07-29T15:14:13;3.77;;;1.45;;
43552;SDS011;29153;42.696;23.218;2023-07-29T15:16:42;2.65;;;1.25;;
43552;SDS011;29153;42.696;23.218;2023-07-29T15:19:18;3.62;;;0.95;;
43552;SDS011;29153;42.696;23.218;2023-07-29T15:25:13;4.00;;;1.10;;
43552;SDS011;29153;42.696;23.218;2023-07-29T15:36:39;2.12;;;1.12;;
43552;SDS011;29153;42.696;23.218;2023-07-29T15:39:07;2.08;;;1.05;;
43552;SDS011;29153;42.696;23.218;2023-07-29T15:46:51;7.95;;;1.42;;
43552;SDS011;29153;42.696;23.218;2023-07-29T15:49:20;4.70;;;0.98;;
43552;SDS011;29153;42.696;23.218;2023-07-29T15:52:07;2.27;;;1.20;;
43552;SDS011;29153;42.696;23.218;2023-07-29T15:54:44;1.90;;;0.90;;
43552;SDS011;29153;42.696;23.218;2023-07-29T15:57:04;3.40;;;1.20;;
43552;SDS011;29153;42.696;23.218;2023-07-29T15:59:35;8.18;;;1.35;;
43552;SDS011;29153;42.696;23.218;2023-07-29T16:02:16;3.00;;;1.20;;
43552;SDS011;29153;42.696;23.218;2023-07-29T16:04:49;2.60;;;0.90;;
43552;SDS011;29153;42.696;23.218;2023-07-29T16:09:59;2.15;;;1.05;;
43552;SDS011;29153;42.696;23.218;2023-07-29T16:12:36;4.20;;;0.90;;
43552;SDS011;29153;42.696;23.218;2023-07-29T16:18:47;6.05;;;1.10;;
43552;SDS011;29153;42.696;23.218;2023-07-29T16:21:24;12.37;;;5.25;;
43552;SDS011;29153;42.696;23.218;2023-07-29T16:23:59;6.67;;;4.20;;
43552;SDS011;29153;42.696;23.218;2023-07-29T16:26:22;3.85;;;1.90;;
43552;SDS011;29153;42.696;23.218;2023-07-29T16:28:58;17.60;;;10.55;;
43552;SDS011;29153;42.696;23.218;2023-07-29T16:31:34;7.90;;;3.60;;
43552;SDS011;29153;42.696;23.218;2023-07-29T16:33:58;8.78;;;3.67;;